Weather at Greater Southwest International Airport-Amon Carter Field [CLOSED]

Public forecast

Using degrees Fahrenheit for public forecast. Weather courtesy of forecast.io.

Closest aviation weather report (METAR) to Greater Southwest International Airport-Amon Carter Field

Closest report is Dallas Fort Worth International Airport, 4.0 nm (7.4 km) N.

2024/02/25 04:53 (retrieved 21 minutes ago)

KDFW 250453Z 19010KT 10SM FEW250 17/03 A3002 RMK AO2 SLP159 T01720033

Closest aviation forecast (TAF) to Greater Southwest International Airport-Amon Carter Field

Forecast is more than 12 hours old.

Closest forecast is NAS Fort Worth JRB / Carswell Field, 20.1 nm (37.3 km) W.

2024/02/24 07:21 Ammendment (retrieved 22 hours ago)

AMD KNFW 2407/2507 29003KT 9999 SKC QNH3009INS BECMG 2419/2421 19008KT 9999 FEW250 QNH3006INS BECMG 2501/2503 16010KT 9999 FEW200 QNH3003INS AUTOMATED SENSOR METWATCH 2407 TIL 2412 TX22/2420Z TN07/2413Z AMD 0917 FN00263